sensor_id;sensor_type;location;lat;lon;timestamp;pressure;altitude;pressure_sealevel;temperature;humidity
59289;BME280;45056;47.602;9.886;2023-08-07T00:00:00;92979.28;;;12.26;66.02
59289;BME280;45056;47.602;9.886;2023-08-07T00:02:29;92965.47;;;12.21;65.90
59289;BME280;45056;47.602;9.886;2023-08-07T00:04:58;92977.28;;;12.18;66.34
59289;BME280;45056;47.602;9.886;2023-08-07T00:07:26;92985.59;;;12.14;66.57
59289;BME280;45056;47.602;9.886;2023-08-07T00:09:54;92973.94;;;12.14;66.65
59289;BME280;45056;47.602;9.886;2023-08-07T00:12:22;92972.13;;;12.10;66.40
59289;BME280;45056;47.602;9.886;2023-08-07T00:14:50;92988.94;;;12.09;66.34
59289;BME280;45056;47.602;9.886;2023-08-07T00:17:19;92987.41;;;12.08;66.32
59289;BME280;45056;47.602;9.886;2023-08-07T00:27:54;92979.53;;;12.10;66.03
59289;BME280;45056;47.602;9.886;2023-08-07T00:34:20;92978.31;;;12.11;66.15
59289;BME280;45056;47.602;9.886;2023-08-07T00:37:43;92978.31;;;12.11;66.21
59289;BME280;45056;47.602;9.886;2023-08-07T00:40:40;92977.13;;;12.12;66.14
59289;BME280;45056;47.602;9.886;2023-08-07T00:44:15;92977.41;;;12.14;65.94
59289;BME280;45056;47.602;9.886;2023-08-07T00:47:41;92970.75;;;12.15;65.95
59289;BME280;45056;47.602;9.886;2023-08-07T00:50:42;92970.91;;;12.11;66.33
59289;BME280;45056;47.602;9.886;2023-08-07T00:53:43;92971.34;;;12.10;66.21
59289;BME280;45056;47.602;9.886;2023-08-07T00:57:13;92969.41;;;12.10;66.33
59289;BME280;45056;47.602;9.886;2023-08-07T01:03:27;92972.13;;;12.10;66.08
59289;BME280;45056;47.602;9.886;2023-08-07T01:06:18;92981.81;;;12.11;65.70
59289;BME280;45056;47.602;9.886;2023-08-07T01:08:47;92986.06;;;12.12;66.02
59289;BME280;45056;47.602;9.886;2023-08-07T01:11:22;92982.13;;;12.14;65.92
59289;BME280;45056;47.602;9.886;2023-08-07T01:14:02;92979.72;;;12.16;66.07
59289;BME280;45056;47.602;9.886;2023-08-07T01:16:44;92979.28;;;12.17;66.13
59289;BME280;45056;47.602;9.886;2023-08-07T01:19:23;92978.81;;;12.19;65.98
59289;BME280;45056;47.602;9.886;2023-08-07T01:22:09;92977.59;;;12.20;65.90
59289;BME280;45056;47.602;9.886;2023-08-07T01:24:39;92989.28;;;12.20;65.95
59289;BME280;45056;47.602;9.886;2023-08-07T01:27:19;92988.06;;;12.21;65.90
59289;BME280;45056;47.602;9.886;2023-08-07T01:30:05;92992.31;;;12.22;65.90
59289;BME280;45056;47.602;9.886;2023-08-07T01:32:49;92991.09;;;12.23;65.93
59289;BME280;45056;47.602;9.886;2023-08-07T01:35:29;92987.47;;;12.26;66.04
59289;BME280;45056;47.602;9.886;2023-08-07T01:38:05;92991.72;;;12.27;65.92
59289;BME280;45056;47.602;9.886;2023-08-07T01:40:52;92992.03;;;12.30;65.95
59289;BME280;45056;47.602;9.886;2023-08-07T01:43:57;93002.81;;;12.33;66.04
59289;BME280;45056;47.602;9.886;2023-08-07T01:46:35;92989.59;;;12.32;65.69
59289;BME280;45056;47.602;9.886;2023-08-07T01:49:35;92992.78;;;12.30;65.89
59289;BME280;45056;47.602;9.886;2023-08-07T01:52:24;92995.81;;;12.32;66.04
59289;BME280;45056;47.602;9.886;2023-08-07T01:54:55;92987.19;;;12.34;66.20
59289;BME280;45056;47.602;9.886;2023-08-07T01:57:23;92979.78;;;12.34;66.23
59289;BME280;45056;47.602;9.886;2023-08-07T01:59:52;92990.22;;;12.36;66.21
59289;BME280;45056;47.602;9.886;2023-08-07T02:02:20;92992.19;;;12.35;66.08
59289;BME280;45056;47.602;9.886;2023-08-07T02:04:48;92991.44;;;12.35;66.08
59289;BME280;45056;47.602;9.886;2023-08-07T02:07:16;92996.88;;;12.35;66.46
59289;BME280;45056;47.602;9.886;2023-08-07T02:09:44;92990.69;;;12.34;66.24
59289;BME280;45056;47.602;9.886;2023-08-07T02:12:13;92991.44;;;12.35;65.98
59289;BME280;45056;47.602;9.886;2023-08-07T02:14:42;92990.97;;;12.36;65.81
59289;BME280;45056;47.602;9.886;2023-08-07T02:17:10;92992.94;;;12.36;66.06
59289;BME280;45056;47.602;9.886;2023-08-07T02:19:38;92994.03;;;12.38;66.28
59289;BME280;45056;47.602;9.886;2023-08-07T02:22:06;92995.22;;;12.37;65.95
59289;BME280;45056;47.602;9.886;2023-08-07T02:24:34;93006.88;;;12.38;65.88
59289;BME280;45056;47.602;9.886;2023-08-07T02:27:03;92991.72;;;12.37;65.44
59289;BME280;45056;47.602;9.886;2023-08-07T02:29:39;92990.22;;;12.36;65.53
59289;BME280;45056;47.602;9.886;2023-08-07T02:32:07;93002.66;;;12.37;65.50
59289;BME280;45056;47.602;9.886;2023-08-07T02:34:46;93001.13;;;12.36;65.37
59289;BME280;45056;47.602;9.886;2023-08-07T02:37:14;93007.78;;;12.35;65.53
59289;BME280;45056;47.602;9.886;2023-08-07T02:39:45;93007.78;;;12.35;65.23
59289;BME280;45056;47.602;9.886;2023-08-07T02:46:57;93013.72;;;12.33;65.03
59289;BME280;45056;47.602;9.886;2023-08-07T02:49:56;93005.84;;;12.35;65.10
59289;BME280;45056;47.602;9.886;2023-08-07T02:52:54;93015.97;;;12.35;65.16
59289;BME280;45056;47.602;9.886;2023-08-07T02:58:53;93015.22;;;12.34;65.11
59289;BME280;45056;47.602;9.886;2023-08-07T03:02:26;93013.72;;;12.33;65.34
59289;BME280;45056;47.602;9.886;2023-08-07T03:05:39;93020.06;;;12.30;65.08
59289;BME280;45056;47.602;9.886;2023-08-07T03:08:34;93020.06;;;12.30;65.23
59289;BME280;45056;47.602;9.886;2023-08-07T03:11:20;93024.00;;;12.29;65.14
59289;BME280;45056;47.602;9.886;2023-08-07T03:15:00;93029.75;;;12.31;65.15
59289;BME280;45056;47.602;9.886;2023-08-07T03:18:01;93028.53;;;12.32;65.18
59289;BME280;45056;47.602;9.886;2023-08-07T03:22:01;93035.53;;;12.33;64.94
59289;BME280;45056;47.602;9.886;2023-08-07T03:25:36;93038.72;;;12.32;65.12
59289;BME280;45056;47.602;9.886;2023-08-07T03:29:08;93042.34;;;12.29;65.12
59289;BME280;45056;47.602;9.886;2023-08-07T03:36:08;93040.81;;;12.27;65.33
59289;BME280;45056;47.602;9.886;2023-08-07T03:38:37;93047.34;;;12.30;65.37
59289;BME280;45056;47.602;9.886;2023-08-07T03:41:05;93046.59;;;12.30;65.41
59289;BME280;45056;47.602;9.886;2023-08-07T03:43:33;93037.31;;;12.27;65.52
59289;BME280;45056;47.602;9.886;2023-08-07T03:46:01;93040.50;;;12.25;65.46
59289;BME280;45056;47.602;9.886;2023-08-07T03:48:29;93044.88;;;12.23;65.64
59289;BME280;45056;47.602;9.886;2023-08-07T03:51:02;93047.63;;;12.23;65.83
59289;BME280;45056;47.602;9.886;2023-08-07T03:53:32;93050.34;;;12.23;65.66
59289;BME280;45056;47.602;9.886;2023-08-07T03:56:00;93048.09;;;12.21;65.76
59289;BME280;45056;47.602;9.886;2023-08-07T03:58:29;93056.69;;;12.20;65.75
59289;BME280;45056;47.602;9.886;2023-08-07T04:00:57;93064.13;;;12.19;65.87
59289;BME280;45056;47.602;9.886;2023-08-07T04:03:25;93068.06;;;12.18;66.19
59289;BME280;45056;47.602;9.886;2023-08-07T04:05:54;93065.78;;;12.17;66.14
59289;BME280;45056;47.602;9.886;2023-08-07T04:08:23;93070.16;;;12.14;66.25
59289;BME280;45056;47.602;9.886;2023-08-07T04:10:59;93076.06;;;12.12;66.29
59289;BME280;45056;47.602;9.886;2023-08-07T04:13:29;93075.31;;;12.12;66.36
59289;BME280;45056;47.602;9.886;2023-08-07T04:15:58;93073.03;;;12.10;66.37
59289;BME280;45056;47.602;9.886;2023-08-07T04:18:27;93073.78;;;12.11;66.45
59289;BME280;45056;47.602;9.886;2023-08-07T04:20:56;93076.50;;;12.11;66.48
59289;BME280;45056;47.602;9.886;2023-08-07T04:23:25;93081.97;;;12.11;66.56
59289;BME280;45056;47.602;9.886;2023-08-07T04:25:53;93082.75;;;12.11;66.54
59289;BME280;45056;47.602;9.886;2023-08-07T04:28:23;93085.91;;;12.10;66.48
59289;BME280;45056;47.602;9.886;2023-08-07T04:30:51;93084.38;;;12.09;66.59
59289;BME280;45056;47.602;9.886;2023-08-07T04:33:20;93083.63;;;12.08;66.75
59289;BME280;45056;47.602;9.886;2023-08-07T04:35:48;93078.94;;;12.09;66.68
59289;BME280;45056;47.602;9.886;2023-08-07T04:38:17;93083.47;;;12.12;67.46
59289;BME280;45056;47.602;9.886;2023-08-07T04:40:45;93086.81;;;12.16;67.27
59289;BME280;45056;47.602;9.886;2023-08-07T04:43:14;93099.13;;;12.21;66.86
59289;BME280;45056;47.602;9.886;2023-08-07T04:45:44;93087.31;;;12.24;67.08
59289;BME280;45056;47.602;9.886;2023-08-07T04:48:13;93089.94;;;12.27;66.68
59289;BME280;45056;47.602;9.886;2023-08-07T04:50:41;93083.09;;;12.32;66.86
59289;BME280;45056;47.602;9.886;2023-08-07T04:53:09;93088.91;;;12.34;66.68
59289;BME280;45056;47.602;9.886;2023-08-07T04:55:38;93084.06;;;12.38;66.68
59289;BME280;45056;47.602;9.886;2023-08-07T04:58:06;93097.53;;;12.42;66.63
59289;BME280;45056;47.602;9.886;2023-08-07T05:00:35;93096.66;;;12.45;66.47
59289;BME280;45056;47.602;9.886;2023-08-07T05:03:05;93097.59;;;12.51;66.46
59289;BME280;45056;47.602;9.886;2023-08-07T05:05:32;93100.03;;;12.59;66.08
59289;BME280;45056;47.602;9.886;2023-08-07T05:08:01;93092.34;;;12.66;65.57
59289;BME280;45056;47.602;9.886;2023-08-07T05:10:29;93104.31;;;12.69;65.48
59289;BME280;45056;47.602;9.886;2023-08-07T05:12:57;93099.00;;;12.65;65.44
59289;BME280;45056;47.602;9.886;2023-08-07T05:15:25;93093.38;;;12.60;65.39
59289;BME280;45056;47.602;9.886;2023-08-07T05:17:55;93095.47;;;12.55;65.56
59289;BME280;45056;47.602;9.886;2023-08-07T05:20:24;93096.06;;;12.50;65.69
59289;BME280;45056;47.602;9.886;2023-08-07T05:22:52;93088.75;;;12.47;65.71
59289;BME280;45056;47.602;9.886;2023-08-07T05:25:20;93099.38;;;12.45;66.33
59289;BME280;45056;47.602;9.886;2023-08-07T05:27:48;93087.41;;;12.43;66.16
59289;BME280;45056;47.602;9.886;2023-08-07T05:30:16;93090.56;;;12.41;66.21
59289;BME280;45056;47.602;9.886;2023-08-07T05:32:45;93093.44;;;12.37;66.40
59289;BME280;45056;47.602;9.886;2023-08-07T05:35:13;93089.34;;;12.33;66.25
59289;BME280;45056;47.602;9.886;2023-08-07T05:37:43;93099.16;;;12.30;66.52
59289;BME280;45056;47.602;9.886;2023-08-07T05:40:11;93103.88;;;12.30;66.59
59289;BME280;45056;47.602;9.886;2023-08-07T05:42:39;93099.16;;;12.30;66.61
59289;BME280;45056;47.602;9.886;2023-08-07T05:45:09;93112.38;;;12.32;66.68
59289;BME280;45056;47.602;9.886;2023-08-07T05:47:37;93108.13;;;12.31;66.66
59289;BME280;45056;47.602;9.886;2023-08-07T05:50:06;93105.84;;;12.29;66.62
59289;BME280;45056;47.602;9.886;2023-08-07T05:52:35;93109.03;;;12.27;66.69
59289;BME280;45056;47.602;9.886;2023-08-07T05:55:05;93105.53;;;12.27;66.95
59289;BME280;45056;47.602;9.886;2023-08-07T05:57:34;93113.28;;;12.29;66.99
59289;BME280;45056;47.602;9.886;2023-08-07T06:00:03;93105.09;;;12.29;66.89
59289;BME280;45056;47.602;9.886;2023-08-07T06:02:32;93106.59;;;12.30;66.78
59289;BME280;45056;47.602;9.886;2023-08-07T06:05:00;93118.25;;;12.30;66.65
59289;BME280;45056;47.602;9.886;2023-08-07T06:07:28;93111.59;;;12.31;66.27
59289;BME280;45056;47.602;9.886;2023-08-07T06:09:57;93108.56;;;12.29;66.33
59289;BME280;45056;47.602;9.886;2023-08-07T06:12:26;93113.28;;;12.29;66.60
59289;BME280;45056;47.602;9.886;2023-08-07T06:14:54;93114.00;;;12.29;66.53
59289;BME280;45056;47.602;9.886;2023-08-07T06:17:22;93108.13;;;12.31;66.27
59289;BME280;45056;47.602;9.886;2023-08-07T06:19:52;93108.44;;;12.33;66.46
59289;BME280;45056;47.602;9.886;2023-08-07T06:22:20;93107.22;;;12.34;66.25
59289;BME280;45056;47.602;9.886;2023-08-07T06:24:48;93100.56;;;12.35;66.56
59289;BME280;45056;47.602;9.886;2023-08-07T06:27:17;93107.22;;;12.34;66.59
59289;BME280;45056;47.602;9.886;2023-08-07T06:29:46;93113.00;;;12.36;66.88
59289;BME280;45056;47.602;9.886;2023-08-07T06:32:14;93106.00;;;12.35;66.97
59289;BME280;45056;47.602;9.886;2023-08-07T06:34:44;93111.03;;;12.36;67.11
59289;BME280;45056;47.602;9.886;2023-08-07T06:37:13;93114.50;;;12.37;67.26
59289;BME280;45056;47.602;9.886;2023-08-07T06:39:41;93116.94;;;12.35;67.37
59289;BME280;45056;47.602;9.886;2023-08-07T06:42:09;93116.63;;;12.33;67.57
59289;BME280;45056;47.602;9.886;2023-08-07T06:44:37;93122.84;;;12.33;67.96
59289;BME280;45056;47.602;9.886;2023-08-07T06:47:07;93122.38;;;12.35;67.91
59289;BME280;45056;47.602;9.886;2023-08-07T06:49:35;93122.38;;;12.35;67.98
59289;BME280;45056;47.602;9.886;2023-08-07T06:52:04;93123.16;;;12.35;67.87
59289;BME280;45056;47.602;9.886;2023-08-07T06:54:32;93121.19;;;12.36;67.53
59289;BME280;45056;47.602;9.886;2023-08-07T06:57:00;93133.59;;;12.37;67.70
59289;BME280;45056;47.602;9.886;2023-08-07T06:59:28;93136.66;;;12.39;67.74
59289;BME280;45056;47.602;9.886;2023-08-07T07:01:56;93141.19;;;12.42;67.51
59289;BME280;45056;47.602;9.886;2023-08-07T07:04:25;93131.81;;;12.43;67.18
59289;BME280;45056;47.602;9.886;2023-08-07T07:06:54;93134.41;;;12.47;67.56
59289;BME280;45056;47.602;9.886;2023-08-07T07:09:22;93140.19;;;12.49;67.46
59289;BME280;45056;47.602;9.886;2023-08-07T07:11:50;93142.00;;;12.52;67.36
59289;BME280;45056;47.602;9.886;2023-08-07T07:14:18;93148.53;;;12.54;67.01
59289;BME280;45056;47.602;9.886;2023-08-07T07:16:46;93142.94;;;12.58;66.78
59289;BME280;45056;47.602;9.886;2023-08-07T07:19:14;93141.28;;;12.61;66.69
59289;BME280;45056;47.602;9.886;2023-08-07T07:21:44;93149.16;;;12.59;66.63
59289;BME280;45056;47.602;9.886;2023-08-07T07:24:12;93161.28;;;12.58;66.50
59289;BME280;45056;47.602;9.886;2023-08-07T07:26:40;93146.88;;;12.57;66.18
59289;BME280;45056;47.602;9.886;2023-08-07T07:29:08;93156.28;;;12.56;66.03
59289;BME280;45056;47.602;9.886;2023-08-07T07:31:36;93153.69;;;12.52;66.25
59289;BME280;45056;47.602;9.886;2023-08-07T07:34:04;93163.41;;;12.53;66.30
59289;BME280;45056;47.602;9.886;2023-08-07T07:36:33;93155.66;;;12.52;66.31
59289;BME280;45056;47.602;9.886;2023-08-07T07:39:02;93156.88;;;12.51;66.24
59289;BME280;45056;47.602;9.886;2023-08-07T07:41:30;93160.06;;;12.49;66.19
59289;BME280;45056;47.602;9.886;2023-08-07T07:43:58;93160.81;;;12.50;66.25
59289;BME280;45056;47.602;9.886;2023-08-07T07:46:28;93167.47;;;12.49;66.28
59289;BME280;45056;47.602;9.886;2023-08-07T07:48:58;93168.56;;;12.51;66.21
59289;BME280;45056;47.602;9.886;2023-08-07T07:51:27;93179.31;;;12.55;66.12
59289;BME280;45056;47.602;9.886;2023-08-07T07:53:55;93169.47;;;12.58;65.92
59289;BME280;45056;47.602;9.886;2023-08-07T07:56:25;93176.47;;;12.59;65.96
59289;BME280;45056;47.602;9.886;2023-08-07T07:58:53;93172.22;;;12.58;65.73
59289;BME280;45056;47.602;9.886;2023-08-07T08:01:21;93176.47;;;12.59;65.88
59289;BME280;45056;47.602;9.886;2023-08-07T08:03:49;93189.03;;;12.56;65.84
59289;BME280;45056;47.602;9.886;2023-08-07T08:06:18;93181.00;;;12.52;66.38
59289;BME280;45056;47.602;9.886;2023-08-07T08:08:46;93177.75;;;12.45;66.65
59289;BME280;45056;47.602;9.886;2023-08-07T08:11:14;93182.75;;;12.46;67.04
59289;BME280;45056;47.602;9.886;2023-08-07T08:13:44;93185.38;;;12.50;67.38
59289;BME280;45056;47.602;9.886;2023-08-07T08:16:12;93184.78;;;12.55;67.60
59289;BME280;45056;47.602;9.886;2023-08-07T08:18:40;93188.91;;;12.60;67.67
59289;BME280;45056;47.602;9.886;2023-08-07T08:21:08;93189.53;;;12.64;67.73
59289;BME280;45056;47.602;9.886;2023-08-07T08:23:36;93189.41;;;12.67;67.69
59289;BME280;45056;47.602;9.886;2023-08-07T08:26:04;93203.78;;;12.68;67.90
59289;BME280;45056;47.602;9.886;2023-08-07T08:28:32;93181.28;;;12.54;63.61
59289;BME280;45056;47.602;9.886;2023-08-07T08:31:02;93180.47;;;12.35;63.07
59289;BME280;45056;47.602;9.886;2023-08-07T08:33:30;93202.03;;;12.20;64.07
59289;BME280;45056;47.602;9.886;2023-08-07T08:35:58;93204.84;;;12.07;66.75
59289;BME280;45056;47.602;9.886;2023-08-07T08:38:26;93203.13;;;12.01;67.71
59289;BME280;45056;47.602;9.886;2023-08-07T08:41:02;93204.97;;;12.04;68.55
59289;BME280;45056;47.602;9.886;2023-08-07T08:43:34;93210.91;;;12.11;68.79
59289;BME280;45056;47.602;9.886;2023-08-07T08:46:05;93207.81;;;12.22;69.00
59289;BME280;45056;47.602;9.886;2023-08-07T08:48:35;93204.53;;;12.37;69.07
59289;BME280;45056;47.602;9.886;2023-08-07T08:51:08;93214.63;;;12.49;68.52
59289;BME280;45056;47.602;9.886;2023-08-07T08:53:38;93219.22;;;12.62;68.67
59289;BME280;45056;47.602;9.886;2023-08-07T08:56:07;93211.84;;;12.72;68.31
59289;BME280;45056;47.602;9.886;2023-08-07T08:58:35;93212.66;;;12.81;68.58
59289;BME280;45056;47.602;9.886;2023-08-07T09:01:06;93221.78;;;12.88;68.51
59289;BME280;45056;47.602;9.886;2023-08-07T09:03:36;93218.75;;;12.95;68.22
59289;BME280;45056;47.602;9.886;2023-08-07T09:06:04;93215.00;;;13.02;68.37
59289;BME280;45056;47.602;9.886;2023-08-07T09:08:34;93207.25;;;13.09;67.68
59289;BME280;45056;47.602;9.886;2023-08-07T09:11:04;93207.59;;;13.11;67.02
59289;BME280;45056;47.602;9.886;2023-08-07T09:13:36;93199.84;;;13.19;67.58
59289;BME280;45056;47.602;9.886;2023-08-07T09:16:08;93204.28;;;13.26;66.93
59289;BME280;45056;47.602;9.886;2023-08-07T09:18:38;93204.44;;;13.32;66.61
59289;BME280;45056;47.602;9.886;2023-08-07T09:21:06;93206.88;;;13.39;66.35
59289;BME280;45056;47.602;9.886;2023-08-07T09:23:35;93205.09;;;13.45;66.18
59289;BME280;45056;47.602;9.886;2023-08-07T09:26:04;93204.78;;;13.52;65.66
59289;BME280;45056;47.602;9.886;2023-08-07T09:28:33;93203.59;;;13.63;65.80
59289;BME280;45056;47.602;9.886;2023-08-07T09:31:01;93215.63;;;13.75;65.26
59289;BME280;45056;47.602;9.886;2023-08-07T09:33:30;93213.78;;;13.81;63.85
59289;BME280;45056;47.602;9.886;2023-08-07T09:36:00;93204.66;;;13.84;63.47
59289;BME280;45056;47.602;9.886;2023-08-07T09:38:29;93210.44;;;13.86;63.63
59289;BME280;45056;47.602;9.886;2023-08-07T09:40:59;93205.88;;;13.92;63.31
59289;BME280;45056;47.602;9.886;2023-08-07T09:43:29;93213.94;;;13.96;62.36
59289;BME280;45056;47.602;9.886;2023-08-07T09:46:02;93204.03;;;13.98;61.68
59289;BME280;45056;47.602;9.886;2023-08-07T09:48:39;93204.34;;;14.00;61.48
59289;BME280;45056;47.602;9.886;2023-08-07T09:51:08;93207.72;;;14.05;61.50
59289;BME280;45056;47.602;9.886;2023-08-07T09:53:37;93213.19;;;14.05;61.29
59289;BME280;45056;47.602;9.886;2023-08-07T09:56:06;93205.72;;;14.05;60.08
59289;BME280;45056;47.602;9.886;2023-08-07T09:58:34;93204.06;;;14.08;60.88
59289;BME280;45056;47.602;9.886;2023-08-07T10:01:03;93206.19;;;14.13;60.95
59289;BME280;45056;47.602;9.886;2023-08-07T10:03:34;93209.94;;;14.16;60.83
59289;BME280;45056;47.602;9.886;2023-08-07T10:06:04;93207.38;;;14.21;60.99
59289;BME280;45056;47.602;9.886;2023-08-07T10:08:33;93207.22;;;14.25;60.69
59289;BME280;45056;47.602;9.886;2023-08-07T10:11:07;93199.47;;;14.23;60.62
59289;BME280;45056;47.602;9.886;2023-08-07T10:13:36;93197.66;;;14.20;60.66
59289;BME280;45056;47.602;9.886;2023-08-07T10:16:05;93190.66;;;14.19;60.63
59289;BME280;45056;47.602;9.886;2023-08-07T10:18:35;93196.44;;;14.21;60.68
59289;BME280;45056;47.602;9.886;2023-08-07T10:21:06;93193.06;;;14.26;60.11
59289;BME280;45056;47.602;9.886;2023-08-07T10:23:35;93189.41;;;14.29;59.99
59289;BME280;45056;47.602;9.886;2023-08-07T10:26:06;93193.50;;;14.34;59.87
59289;BME280;45056;47.602;9.886;2023-08-07T10:28:39;93199.44;;;14.33;59.48
59289;BME280;45056;47.602;9.886;2023-08-07T10:31:12;93204.78;;;14.27;59.76
59289;BME280;45056;47.602;9.886;2023-08-07T10:33:43;93207.50;;;14.18;60.03
59289;BME280;45056;47.602;9.886;2023-08-07T10:36:11;93213.78;;;14.09;60.58
59289;BME280;45056;47.602;9.886;2023-08-07T10:38:41;93232.78;;;14.03;61.59
59289;BME280;45056;47.602;9.886;2023-08-07T10:41:10;93218.03;;;13.91;61.95
59289;BME280;45056;47.602;9.886;2023-08-07T10:43:43;93226.25;;;13.82;62.57
59289;BME280;45056;47.602;9.886;2023-08-07T10:46:14;93225.34;;;13.76;62.71
59289;BME280;45056;47.602;9.886;2023-08-07T10:48:46;93240.66;;;13.73;62.91
59289;BME280;45056;47.602;9.886;2023-08-07T10:51:21;93242.94;;;13.65;62.92
59289;BME280;45056;47.602;9.886;2023-08-07T10:53:57;93226.22;;;13.54;62.99
59289;BME280;45056;47.602;9.886;2023-08-07T10:56:30;93233.63;;;13.44;63.23
59289;BME280;45056;47.602;9.886;2023-08-07T10:59:08;93235.25;;;13.32;63.22
59289;BME280;45056;47.602;9.886;2023-08-07T11:01:41;93241.91;;;13.22;63.09
59289;BME280;45056;47.602;9.886;2023-08-07T11:04:13;93224.72;;;13.12;63.22
59289;BME280;45056;47.602;9.886;2023-08-07T11:06:43;93224.25;;;13.04;63.51
59289;BME280;45056;47.602;9.886;2023-08-07T11:09:15;93224.41;;;13.01;63.67
59289;BME280;45056;47.602;9.886;2023-08-07T11:11:45;93225.03;;;13.05;64.76
59289;BME280;45056;47.602;9.886;2023-08-07T11:14:15;93221.72;;;13.19;65.36
59289;BME280;45056;47.602;9.886;2023-08-07T11:16:47;93210.06;;;13.37;66.55
59289;BME280;45056;47.602;9.886;2023-08-07T11:19:18;93223.34;;;13.58;64.68
59289;BME280;45056;47.602;9.886;2023-08-07T11:21:47;93222.75;;;13.72;64.18
59289;BME280;45056;47.602;9.886;2023-08-07T11:24:17;93228.06;;;13.85;64.53
59289;BME280;45056;47.602;9.886;2023-08-07T11:26:48;93219.09;;;13.94;63.15
59289;BME280;45056;47.602;9.886;2023-08-07T11:29:18;93220.16;;;13.96;61.73
59289;BME280;45056;47.602;9.886;2023-08-07T11:31:46;93213.78;;;13.99;62.55
59289;BME280;45056;47.602;9.886;2023-08-07T11:34:18;93216.22;;;14.07;62.19
59289;BME280;45056;47.602;9.886;2023-08-07T11:36:46;93223.50;;;14.10;60.19
59289;BME280;45056;47.602;9.886;2023-08-07T11:39:15;93223.19;;;14.17;59.79
59289;BME280;45056;47.602;9.886;2023-08-07T11:41:46;93231.38;;;14.26;59.44
59289;BME280;45056;47.602;9.886;2023-08-07T11:44:14;93230.91;;;14.37;59.59
59289;BME280;45056;47.602;9.886;2023-08-07T11:46:43;93235.13;;;14.48;58.11
59289;BME280;45056;47.602;9.886;2023-08-07T11:49:12;93233.63;;;14.56;58.03
59289;BME280;45056;47.602;9.886;2023-08-07T11:51:44;93240.28;;;14.64;57.20
59289;BME280;45056;47.602;9.886;2023-08-07T11:54:14;93245.31;;;14.75;57.63
59289;BME280;45056;47.602;9.886;2023-08-07T11:56:42;93249.81;;;14.88;57.73
59289;BME280;45056;47.602;9.886;2023-08-07T11:59:10;93252.53;;;14.97;56.75
59289;BME280;45056;47.602;9.886;2023-08-07T12:01:38;93256.00;;;15.07;56.29
59289;BME280;45056;47.602;9.886;2023-08-07T12:04:10;93253.41;;;15.12;56.80
59289;BME280;45056;47.602;9.886;2023-08-07T12:06:38;93252.59;;;15.21;57.09
59289;BME280;45056;47.602;9.886;2023-08-07T12:09:22;93249.00;;;15.39;56.65
59289;BME280;45056;47.602;9.886;2023-08-07T12:11:50;93255.66;;;15.48;55.64
59289;BME280;45056;47.602;9.886;2023-08-07T12:14:28;93250.31;;;15.53;55.43
59289;BME280;45056;47.602;9.886;2023-08-07T12:16:56;93248.88;;;15.58;54.98
59289;BME280;45056;47.602;9.886;2023-08-07T12:19:35;93244.59;;;15.66;54.75
59289;BME280;45056;47.602;9.886;2023-08-07T12:22:11;93246.31;;;15.79;54.75
59289;BME280;45056;47.602;9.886;2023-08-07T12:24:41;93254.50;;;15.88;54.01
59289;BME280;45056;47.602;9.886;2023-08-07T12:27:09;93265.03;;;15.90;53.69
59289;BME280;45056;47.602;9.886;2023-08-07T12:29:37;93264.41;;;15.85;53.80
59289;BME280;45056;47.602;9.886;2023-08-07T12:32:06;93267.97;;;15.77;53.80
59289;BME280;45056;47.602;9.886;2023-08-07T12:34:36;93272.31;;;15.68;54.00
59289;BME280;45056;47.602;9.886;2023-08-07T12:37:05;93274.91;;;15.63;53.62
59289;BME280;45056;47.602;9.886;2023-08-07T12:39:34;93277.81;;;15.59;53.49
59289;BME280;45056;47.602;9.886;2023-08-07T12:42:03;93287.59;;;15.60;53.41
59289;BME280;45056;47.602;9.886;2023-08-07T12:44:31;93278.53;;;15.69;53.53
59289;BME280;45056;47.602;9.886;2023-08-07T12:46:59;93271.50;;;15.77;52.58
59289;BME280;45056;47.602;9.886;2023-08-07T12:49:27;93264.78;;;15.78;52.33
59289;BME280;45056;47.602;9.886;2023-08-07T12:51:55;93264.31;;;15.80;53.15
59289;BME280;45056;47.602;9.886;2023-08-07T12:54:24;93266.53;;;15.91;53.63
59289;BME280;45056;47.602;9.886;2023-08-07T12:56:53;93265.16;;;15.95;51.90
59289;BME280;45056;47.602;9.886;2023-08-07T12:59:22;93262.84;;;15.94;52.70
59289;BME280;45056;47.602;9.886;2023-08-07T13:01:50;93274.63;;;15.85;54.56
59289;BME280;45056;47.602;9.886;2023-08-07T13:04:19;93288.13;;;15.73;55.31
59289;BME280;45056;47.602;9.886;2023-08-07T13:06:47;93279.19;;;15.64;55.68
59289;BME280;45056;47.602;9.886;2023-08-07T13:09:15;93286.97;;;15.56;56.01
59289;BME280;45056;47.602;9.886;2023-08-07T13:11:44;93288.41;;;15.51;56.68
59289;BME280;45056;47.602;9.886;2023-08-07T13:14:13;93285.53;;;15.46;55.89
59289;BME280;45056;47.602;9.886;2023-08-07T13:16:41;93301.16;;;15.30;56.42
59289;BME280;45056;47.602;9.886;2023-08-07T13:19:10;93290.97;;;15.12;56.96
59289;BME280;45056;47.602;9.886;2023-08-07T13:21:38;93296.06;;;14.95;56.92
59289;BME280;45056;47.602;9.886;2023-08-07T13:24:06;93304.63;;;14.78;57.13
59289;BME280;45056;47.602;9.886;2023-08-07T13:26:34;93300.06;;;14.66;57.68
59289;BME280;45056;47.602;9.886;2023-08-07T13:29:03;93290.94;;;14.60;57.95
59289;BME280;45056;47.602;9.886;2023-08-07T13:31:32;93303.28;;;14.55;58.79
59289;BME280;45056;47.602;9.886;2023-08-07T13:34:00;93318.66;;;14.52;59.28
59289;BME280;45056;47.602;9.886;2023-08-07T13:36:34;93312.56;;;14.48;59.47
59289;BME280;45056;47.602;9.886;2023-08-07T13:39:03;93299.81;;;14.45;59.65
59289;BME280;45056;47.602;9.886;2023-08-07T13:41:32;93308.94;;;14.42;60.30
59289;BME280;45056;47.602;9.886;2023-08-07T13:44:01;93306.19;;;14.42;60.39
59289;BME280;45056;47.602;9.886;2023-08-07T13:46:29;93306.63;;;14.40;60.36
59289;BME280;45056;47.602;9.886;2023-08-07T13:48:58;93303.59;;;14.38;60.05
59289;BME280;45056;47.602;9.886;2023-08-07T13:51:27;93306.03;;;14.36;59.87
59289;BME280;45056;47.602;9.886;2023-08-07T13:53:55;93308.03;;;14.36;59.73
59289;BME280;45056;47.602;9.886;2023-08-07T13:56:23;93300.84;;;14.48;59.98